Time;durP1;ratioP1;P1;durP2;ratioP2;P2;SDS_P1;SDS_P2;PMS_P1;PMS_P2;Temp;Humidity;BMP_temperature;BMP_pressure;BME280_temperature;BME280_humidity;BME280_pressure;Samples;Min_cycle;Max_cycle;Signal;HPM_P1;HPM_P2
2023/01/14 00:01:34;;;;;;;3.67;2.20;;;;;;;5.03;100.00;100749.50;4997716;28;20582;-75
2023/01/14 00:04:00;;;;;;;7.97;2.80;;;;;;;5.04;100.00;100748.66;4996369;28;20224;-74
2023/01/14 00:06:31;;;;;;;7.67;2.40;;;;;;;5.03;100.00;100758.03;5003989;28;20181;-75
2023/01/14 00:08:59;;;;;;;8.47;2.27;;;;;;;5.02;100.00;100758.88;4999716;28;20236;-76
2023/01/14 00:14:10;;;;;;;7.43;2.40;;;;;;;5.07;100.00;100763.25;4996754;28;20220;-74
2023/01/14 00:16:36;;;;;;;4.73;2.17;;;;;;;5.11;100.00;100763.34;4994214;28;20209;-74
2023/01/14 00:19:02;;;;;;;5.83;2.07;;;;;;;5.11;100.00;100757.34;5000302;28;20574;-76
2023/01/14 00:21:28;;;;;;;5.20;2.37;;;;;;;5.13;100.00;100760.81;4998925;28;20645;-75
2023/01/14 00:23:54;;;;;;;7.67;2.20;;;;;;;5.14;100.00;100760.84;4994880;28;20211;-74
2023/01/14 00:26:19;;;;;;;5.03;2.47;;;;;;;5.17;100.00;100765.16;4994644;28;20189;-74
2023/01/14 00:28:46;;;;;;;4.60;2.10;;;;;;;5.18;100.00;100762.66;4993085;28;20283;-74
2023/01/14 00:31:14;;;;;;;7.03;2.43;;;;;;;5.19;100.00;100756.69;5000077;28;20221;-76
2023/01/14 00:33:41;;;;;;;6.80;2.60;;;;;;;5.21;100.00;100761.84;5001074;28;20210;-75
2023/01/14 00:36:11;;;;;;;5.70;2.70;;;;;;;5.22;100.00;100768.69;4995304;28;20716;-75
2023/01/14 00:38:37;;;;;;;4.77;2.70;;;;;;;5.17;100.00;100758.34;5001458;28;20253;-75
2023/01/14 00:41:10;;;;;;;6.77;2.43;;;;;;;5.17;100.00;100749.75;5000754;28;20598;-75
2023/01/14 00:43:37;;;;;;;4.93;2.30;;;;;;;5.15;100.00;100749.75;4995776;28;20201;-76
2023/01/14 00:46:05;;;;;;;6.30;2.30;;;;;;;5.16;100.00;100753.16;5000601;28;20550;-76
2023/01/14 00:48:31;;;;;;;5.53;2.33;;;;;;;5.15;100.00;100751.44;5007163;28;20197;-75
2023/01/14 00:50:57;;;;;;;6.80;2.40;;;;;;;5.16;100.00;100750.59;4998250;28;20188;-75
2023/01/14 00:53:22;;;;;;;6.03;2.60;;;;;;;5.18;100.00;100761.75;5003752;28;20195;-76
2023/01/14 00:55:47;;;;;;;5.67;2.20;;;;;;;5.19;100.00;100764.38;5002558;28;20185;-74
2023/01/14 00:58:13;;;;;;;4.57;2.57;;;;;;;5.22;100.00;100763.56;5008462;28;20202;-74
2023/01/14 01:00:38;;;;;;;6.67;2.17;;;;;;;5.24;100.00;100766.16;4999248;28;20272;-75
2023/01/14 01:03:03;;;;;;;5.83;2.27;;;;;;;5.24;100.00;100761.03;4991887;28;20273;-74
2023/01/14 01:05:33;;;;;;;6.20;2.33;;;;;;;5.22;100.00;100762.72;5000542;28;20245;-75
2023/01/14 01:07:58;;;;;;;5.77;2.60;;;;;;;5.22;100.00;100762.72;5004832;28;20716;-74
2023/01/14 01:10:23;;;;;;;6.70;2.53;;;;;;;5.19;100.00;100764.38;5003260;28;20266;-75
2023/01/14 01:12:49;;;;;;;4.90;2.07;;;;;;;5.15;100.00;100760.00;5004383;28;20219;-76
2023/01/14 01:15:14;;;;;;;4.53;2.00;;;;;;;5.11;100.00;100759.91;5052328;28;20195;-75
2023/01/14 01:17:39;;;;;;;4.83;2.40;;;;;;;5.09;100.00;100759.03;5028296;28;20180;-74
2023/01/14 01:20:05;;;;;;;5.33;2.27;;;;;;;5.05;100.00;100765.78;4992862;28;20286;-74
2023/01/14 01:22:30;;;;;;;6.20;2.87;;;;;;;5.06;100.00;100766.63;4996085;28;20240;-74
2023/01/14 01:24:56;;;;;;;5.40;2.13;;;;;;;5.03;100.00;100758.03;4997192;28;20219;-74
2023/01/14 01:27:21;;;;;;;7.13;2.50;;;;;;;5.06;100.00;100756.38;5002042;28;21789;-75
2023/01/14 01:29:46;;;;;;;6.43;2.60;;;;;;;5.04;100.00;100756.34;4996317;28;20193;-75
2023/01/14 01:32:11;;;;;;;4.33;2.23;;;;;;;5.04;100.00;100748.66;4998749;28;20188;-75
2023/01/14 01:34:37;;;;;;;7.00;2.80;;;;;;;5.04;100.00;100740.97;4996808;28;20261;-75
2023/01/14 01:37:02;;;;;;;7.57;2.50;;;;;;;5.03;100.00;100740.09;4998888;28;20194;-75
2023/01/14 01:39:27;;;;;;;6.63;2.60;;;;;;;4.99;100.00;100737.44;4997250;28;20182;-76
2023/01/14 01:41:53;;;;;;;5.97;2.00;;;;;;;4.97;100.00;100739.09;4993228;28;20206;-74
2023/01/14 01:44:18;;;;;;;5.57;2.30;;;;;;;4.94;100.00;100744.16;5009783;28;20302;-75
2023/01/14 01:46:43;;;;;;;5.63;2.17;;;;;;;4.90;100.00;100742.38;5000986;28;20211;-74
2023/01/14 01:49:14;;;;;;;5.20;1.87;;;;;;;4.86;100.00;100733.72;5000508;28;20209;-75
2023/01/14 01:52:03;;;;;;;5.73;2.20;;;;;;;4.88;100.00;100742.31;4996110;28;20622;-75
2023/01/14 01:54:34;;;;;;;5.80;2.00;;;;;;;4.95;100.00;100746.78;4993823;28;20211;-73
2023/01/14 01:57:02;;;;;;;6.53;2.10;;;;;;;5.08;100.00;100760.69;5001649;28;20279;-74
2023/01/14 01:59:33;;;;;;;4.03;1.73;;;;;;;5.21;100.00;100759.28;4994508;28;20187;-75
2023/01/14 02:01:58;;;;;;;4.10;1.70;;;;;;;5.34;100.00;100765.53;4993073;28;20189;-75
2023/01/14 02:04:23;;;;;;;5.00;2.03;;;;;;;5.44;100.00;100759.72;4994273;28;20255;-74
2023/01/14 02:06:49;;;;;;;6.27;1.87;;;;;;;5.52;100.00;100762.44;4992945;28;20190;-75
2023/01/14 02:09:16;;;;;;;3.33;1.57;;;;;;;5.56;100.00;100763.38;5002658;28;20197;-74
2023/01/14 02:12:06;;;;;;;4.73;2.10;;;;;;;5.61;100.00;100759.19;4996328;28;20204;-75
2023/01/14 02:14:47;;;;;;;6.43;2.13;;;;;;;5.62;100.00;100753.22;4999949;28;20218;-76
2023/01/14 02:17:46;;;;;;;5.23;2.10;;;;;;;5.61;100.00;100757.47;5002237;28;20183;-75
2023/01/14 02:20:21;;;;;;;6.93;2.27;;;;;;;5.61;100.00;100754.91;4997523;28;20187;-75
2023/01/14 02:23:29;;;;;;;4.73;1.60;;;;;;;5.59;100.00;100755.72;4997606;28;20212;-74
2023/01/14 02:26:06;;;;;;;4.50;1.90;;;;;;;5.58;100.00;100751.44;5001442;28;20587;-74
2023/01/14 02:28:37;;;;;;;4.87;2.03;;;;;;;5.60;100.00;100752.31;5001325;28;20208;-75
2023/01/14 02:31:19;;;;;;;4.87;1.70;;;;;;;5.65;100.00;100748.16;4994131;28;20384;-75
2023/01/14 02:33:59;;;;;;;4.40;1.67;;;;;;;5.70;100.00;100746.50;4999708;28;20619;-74
2023/01/14 02:36:37;;;;;;;4.87;1.60;;;;;;;5.76;100.00;100756.03;5006597;28;20177;-76
2023/01/14 02:39:28;;;;;;;3.43;1.50;;;;;;;5.84;100.00;100766.44;5003417;28;20178;-73
2023/01/14 02:45:15;;;;;;;3.53;1.17;;;;;;;5.87;100.00;100734.00;5000521;28;20218;-75
2023/01/14 02:47:43;;;;;;;3.13;1.50;;;;;;;5.87;100.00;100730.53;4998811;28;20189;-74
2023/01/14 02:50:11;;;;;;;3.53;1.57;;;;;;;5.89;100.00;100734.91;4996031;28;20204;-75
2023/01/14 02:52:36;;;;;;;2.40;1.30;;;;;;;5.90;100.00;100736.59;5007582;28;20703;-75
2023/01/14 02:55:05;;;;;;;4.37;1.50;;;;;;;5.88;100.00;100733.16;5005787;28;20229;-74
2023/01/14 02:57:46;;;;;;;4.10;1.60;;;;;;;5.83;100.00;100715.91;5004847;28;20193;-74
2023/01/14 03:00:14;;;;;;;3.37;1.57;;;;;;;5.75;100.00;100708.94;5003955;28;20186;-74
2023/01/14 03:03:02;;;;;;;6.00;1.80;;;;;;;5.67;100.00;100704.50;5002835;28;20189;-74
2023/01/14 03:05:57;;;;;;;4.47;1.67;;;;;;;5.63;100.00;100701.03;5016561;28;20188;-74
2023/01/14 03:08:34;;;;;;;4.97;2.00;;;;;;;5.60;100.00;100699.25;4999064;28;20231;-75
2023/01/14 03:11:04;;;;;;;3.03;1.60;;;;;;;5.60;100.00;100698.41;5001762;28;20217;-73
2023/01/14 03:13:50;;;;;;;3.80;1.73;;;;;;;5.63;100.00;100683.91;4998841;28;20199;-74
2023/01/14 03:16:19;;;;;;;4.47;1.60;;;;;;;5.64;100.00;100682.22;5000639;28;20542;-74
2023/01/14 03:19:06;;;;;;;2.70;1.80;;;;;;;5.59;100.00;100671.88;5000041;28;20175;-73
2023/01/14 03:21:35;;;;;;;3.40;1.50;;;;;;;5.47;100.00;100669.94;5000707;28;20184;-73
2023/01/14 03:24:22;;;;;;;4.77;1.70;;;;;;;5.38;100.00;100668.91;5028204;28;20198;-76
2023/01/14 03:26:51;;;;;;;4.27;1.57;;;;;;;5.28;100.00;100670.44;5036976;28;20768;-74
2023/01/14 03:29:30;;;;;;;6.47;1.80;;;;;;;5.24;100.00;100658.38;5007792;28;20397;-74
2023/01/14 03:32:27;;;;;;;4.43;1.60;;;;;;;5.24;100.00;100659.25;5006542;28;20184;-74
2023/01/14 03:35:16;;;;;;;3.93;1.50;;;;;;;5.24;100.00;100661.81;4999428;28;20316;-75
2023/01/14 03:37:47;;;;;;;4.57;1.67;;;;;;;5.28;100.00;100655.91;5006823;28;20190;-76
2023/01/14 03:40:16;;;;;;;3.60;1.57;;;;;;;5.31;100.00;100650.81;4994965;28;20220;-75
2023/01/14 03:42:53;;;;;;;5.40;1.93;;;;;;;5.34;100.00;100642.34;5005024;28;20180;-75
2023/01/14 03:45:26;;;;;;;4.27;1.33;;;;;;;5.37;100.00;100637.22;4992077;28;20196;-73
2023/01/14 03:47:51;;;;;;;5.30;1.80;;;;;;;5.37;100.00;100638.94;5003478;28;20194;-73
2023/01/14 03:50:19;;;;;;;4.73;1.70;;;;;;;5.36;100.00;100630.41;5017997;28;20186;-74
2023/01/14 03:53:03;;;;;;;5.60;1.80;;;;;;;5.38;100.00;100628.69;5003146;28;20269;-75
2023/01/14 03:55:42;;;;;;;4.97;1.67;;;;;;;5.39;100.00;100624.44;4998917;28;20465;-74
2023/01/14 03:58:10;;;;;;;4.53;1.90;;;;;;;5.41;100.00;100618.50;5006975;28;20653;-74
2023/01/14 04:00:57;;;;;;;4.13;1.33;;;;;;;5.47;100.00;100620.28;5003253;28;20257;-74
2023/01/14 04:03:24;;;;;;;4.07;1.87;;;;;;;5.50;100.00;100625.50;5001657;28;20617;-73
2023/01/14 04:05:50;;;;;;;4.73;2.30;;;;;;;5.52;100.00;100608.41;4991663;28;20722;-74
2023/01/14 04:08:20;;;;;;;6.53;1.80;;;;;;;5.56;100.00;100612.78;5004369;28;20297;-75
2023/01/14 04:10:45;;;;;;;4.40;1.87;;;;;;;5.53;100.00;100610.16;5005807;28;20280;-76
2023/01/14 04:15:58;;;;;;;5.07;1.90;;;;;;;5.42;100.00;100602.25;5006506;28;20673;-75
2023/01/14 04:18:23;;;;;;;5.23;1.73;;;;;;;5.38;100.00;100607.31;5004695;28;20218;-74
2023/01/14 04:20:48;;;;;;;5.00;1.80;;;;;;;5.35;100.00;100600.44;5002001;28;20190;-76
2023/01/14 04:23:14;;;;;;;4.80;1.90;;;;;;;5.34;100.00;100597.00;4999650;28;21911;-75
2023/01/14 04:25:39;;;;;;;4.47;1.90;;;;;;;5.36;100.00;100593.59;5000499;28;20285;-74
2023/01/14 04:28:04;;;;;;;4.77;1.40;;;;;;;5.33;100.00;100579.00;5004841;28;20209;-74
2023/01/14 04:30:30;;;;;;;5.53;2.17;;;;;;;5.32;100.00;100585.81;4995212;28;20624;-75
2023/01/14 04:32:55;;;;;;;4.10;2.10;;;;;;;5.32;100.00;100575.56;5000175;28;20901;-76
2023/01/14 04:35:20;;;;;;;6.27;1.80;;;;;;;5.31;100.00;100584.09;5003396;28;20194;-74
2023/01/14 04:37:46;;;;;;;5.63;2.40;;;;;;;5.29;100.00;100588.38;5005490;28;20189;-73
2023/01/14 04:40:12;;;;;;;4.80;1.80;;;;;;;5.29;100.00;100588.38;4997829;28;20193;-76
2023/01/14 04:42:37;;;;;;;5.63;2.47;;;;;;;5.29;100.00;100590.94;4997213;28;20968;-74
2023/01/14 04:45:04;;;;;;;6.83;1.80;;;;;;;5.31;100.00;100593.50;5000645;28;20200;-74
2023/01/14 04:47:30;;;;;;;6.23;1.80;;;;;;;5.32;100.00;100592.69;5001710;28;20599;-74
2023/01/14 04:49:55;;;;;;;5.53;1.70;;;;;;;5.34;100.00;100597.00;4995467;28;20202;-74
2023/01/14 04:52:23;;;;;;;8.07;2.33;;;;;;;5.33;100.00;100599.53;4997016;28;20197;-75
2023/01/14 04:54:49;;;;;;;5.17;1.80;;;;;;;5.33;100.00;100589.28;4999330;28;20438;-76
2023/01/14 04:57:15;;;;;;;7.83;1.93;;;;;;;5.32;100.00;100593.53;4999076;28;20197;-74
2023/01/14 04:59:40;;;;;;;5.47;2.67;;;;;;;5.30;100.00;100595.19;5001372;28;20274;-74
2023/01/14 05:02:05;;;;;;;4.07;1.63;;;;;;;5.28;100.00;100590.88;5003107;28;20206;-74
2023/01/14 05:04:31;;;;;;;4.83;2.13;;;;;;;5.29;100.00;100597.75;5000919;28;20240;-74
2023/01/14 05:06:58;;;;;;;4.37;2.20;;;;;;;5.27;100.00;100584.91;4997612;28;20190;-74
2023/01/14 05:09:23;;;;;;;4.80;2.57;;;;;;;5.28;100.00;100585.75;4999588;28;20783;-74
2023/01/14 05:11:49;;;;;;;4.77;2.50;;;;;;;5.28;100.00;100586.63;5000826;28;20228;-75
2023/01/14 05:14:14;;;;;;;5.33;2.10;;;;;;;5.29;100.00;100579.78;4994134;28;20626;-74
2023/01/14 05:16:39;;;;;;;5.30;2.07;;;;;;;5.33;100.00;100572.16;4998409;28;20573;-74
2023/01/14 05:19:05;;;;;;;5.30;2.40;;;;;;;5.35;100.00;100569.63;4995351;28;20320;-77
2023/01/14 05:21:30;;;;;;;5.13;2.40;;;;;;;5.35;100.00;100572.19;4997826;28;20204;-75
2023/01/14 05:23:55;;;;;;;6.30;2.57;;;;;;;5.37;100.00;100552.53;4999529;28;20594;-74
2023/01/14 05:26:21;;;;;;;8.97;2.83;;;;;;;5.39;100.00;100544.88;4993660;28;20327;-74
2023/01/14 05:28:46;;;;;;;7.90;2.70;;;;;;;5.36;100.00;100548.28;5005770;28;20238;-76
2023/01/14 05:31:12;;;;;;;5.73;2.33;;;;;;;5.33;100.00;100543.09;5000022;28;20308;-74
2023/01/14 05:33:37;;;;;;;7.80;2.87;;;;;;;5.33;100.00;100549.06;5020332;28;20195;-78
2023/01/14 05:36:03;;;;;;;8.93;2.53;;;;;;;5.32;100.00;100552.47;5028336;28;20196;-75
2023/01/14 05:38:28;;;;;;;4.77;2.10;;;;;;;5.30;100.00;100543.03;5009498;28;20172;-75
2023/01/14 05:40:54;;;;;;;5.37;2.40;;;;;;;5.30;100.00;100551.56;5004042;28;20174;-75
2023/01/14 05:46:09;;;;;;;5.83;2.23;;;;;;;5.29;100.00;100541.28;4998880;28;20186;-74
2023/01/14 05:48:35;;;;;;;6.90;2.40;;;;;;;5.27;100.00;100538.72;5002103;28;20205;-74
2023/01/14 05:51:02;;;;;;;9.80;2.90;;;;;;;5.25;100.00;100535.25;5002257;28;20189;-74
2023/01/14 05:53:28;;;;;;;4.20;1.90;;;;;;;5.21;100.00;100538.59;5004684;28;20232;-75
2023/01/14 05:55:56;;;;;;;5.27;2.23;;;;;;;5.17;100.00;100532.56;4997770;28;20248;-74
2023/01/14 05:58:22;;;;;;;6.83;2.23;;;;;;;5.14;100.00;100535.06;4999518;28;20587;-73
2023/01/14 06:06:43;;;;;;;6.70;2.43;;;;;;;5.09;100.00;100511.03;5004115;28;20203;-73
2023/01/14 06:09:11;;;;;;;5.83;2.10;;;;;;;5.08;100.00;100521.25;5000184;28;20801;-77
2023/01/14 06:12:36;;;;;;;6.77;2.20;;;;;;;5.08;100.00;100514.41;5000962;28;20190;-74
2023/01/14 06:14:22;;;;;;;6.57;2.37;;;;;;;5.13;100.00;100519.66;4998974;28;20224;-75
2023/01/14 06:16:51;;;;;;;6.93;2.40;;;;;;;5.19;100.00;100520.63;4996440;28;20195;-74
2023/01/14 06:19:17;;;;;;;6.47;2.40;;;;;;;5.29;100.00;100511.38;4995922;28;20184;-75
2023/01/14 06:21:42;;;;;;;5.27;2.57;;;;;;;5.39;100.00;100506.38;4997471;28;20185;-75
2023/01/14 06:24:08;;;;;;;7.73;2.60;;;;;;;5.46;100.00;100498.78;4996303;28;20574;-74
2023/01/14 06:26:35;;;;;;;5.83;2.37;;;;;;;5.55;100.00;100500.66;4992815;28;20194;-74
2023/01/14 06:29:10;;;;;;;9.13;2.80;;;;;;;5.63;100.00;100499.03;4995344;28;20292;-75
2023/01/14 06:31:37;;;;;;;7.83;2.83;;;;;;;5.69;100.00;100498.25;5002766;28;21058;-74
2023/01/14 06:34:03;;;;;;;4.93;2.33;;;;;;;5.74;100.00;100501.78;4998237;28;20684;-76
2023/01/14 06:36:29;;;;;;;5.87;2.40;;;;;;;5.78;100.00;100497.53;5002350;28;20186;-74
2023/01/14 06:38:54;;;;;;;8.30;2.90;;;;;;;5.85;100.00;100489.09;5008965;28;20798;-76
2023/01/14 06:41:20;;;;;;;8.50;3.23;;;;;;;5.90;100.00;100476.28;4995430;28;20670;-74
2023/01/14 06:43:45;;;;;;;8.43;2.70;;;;;;;5.98;100.00;100472.09;4994910;28;20632;-74
2023/01/14 06:46:12;;;;;;;8.00;2.90;;;;;;;6.03;100.00;100467.94;4994506;28;20216;-73
2023/01/14 06:48:39;;;;;;;7.87;3.37;;;;;;;6.06;100.00;100462.84;5000322;28;20206;-74
2023/01/14 06:51:07;;;;;;;7.40;2.50;;;;;;;6.08;100.00;100455.13;4994992;28;20202;-75
2023/01/14 06:53:33;;;;;;;5.93;2.60;;;;;;;6.11;100.00;100447.47;4994150;28;20221;-75
2023/01/14 06:56:07;;;;;;;7.03;2.90;;;;;;;6.14;100.00;100439.81;5001069;28;20188;-74
2023/01/14 06:58:32;;;;;;;7.37;3.23;;;;;;;6.16;100.00;100432.97;4993359;28;20229;-76
2023/01/14 07:00:58;;;;;;;5.90;2.37;;;;;;;6.15;100.00;100431.25;5000510;28;20179;-77
2023/01/14 07:03:25;;;;;;;5.87;2.20;;;;;;;6.18;100.00;100431.28;4995072;28;20207;-75
2023/01/14 07:05:50;;;;;;;5.23;2.30;;;;;;;6.22;100.00;100425.31;4995872;28;20263;-76
2023/01/14 07:08:16;;;;;;;7.63;2.50;;;;;;;6.27;100.00;100409.97;5003929;28;20294;-75
2023/01/14 07:10:42;;;;;;;5.80;2.60;;;;;;;6.32;100.00;100408.31;5005102;28;20246;-74
2023/01/14 07:13:07;;;;;;;4.00;2.10;;;;;;;6.36;100.00;100398.91;4997755;28;20219;-75
2023/01/14 07:15:32;;;;;;;5.20;2.10;;;;;;;6.39;100.00;100399.81;5004704;28;20552;-75
2023/01/14 07:17:57;;;;;;;3.33;1.63;;;;;;;6.44;100.00;100404.13;5003347;28;20211;-75
2023/01/14 07:20:23;;;;;;;5.37;2.00;;;;;;;6.48;100.00;100411.03;4993950;28;20190;-75
2023/01/14 07:22:49;;;;;;;4.60;1.67;;;;;;;6.53;100.00;100396.53;4997449;28;20272;-75
2023/01/14 07:25:14;;;;;;;4.40;1.97;;;;;;;6.58;100.00;100399.97;5001489;28;20198;-75
2023/01/14 07:27:40;;;;;;;4.90;2.00;;;;;;;6.63;100.00;100405.19;4998144;28;20211;-75
2023/01/14 07:30:06;;;;;;;6.00;2.47;;;;;;;6.67;100.00;100412.94;4999163;28;20326;-77
2023/01/14 07:32:33;;;;;;;7.93;2.70;;;;;;;6.70;100.00;100412.09;5002736;28;20198;-75
2023/01/14 07:34:58;;;;;;;6.47;2.50;;;;;;;6.76;100.00;100417.31;5003003;28;20717;-76
2023/01/14 07:37:23;;;;;;;5.97;2.20;;;;;;;6.79;100.00;100416.44;5004147;28;20204;-75
2023/01/14 07:39:49;;;;;;;4.40;1.97;;;;;;;6.83;100.00;100410.50;5004612;28;20196;-74
2023/01/14 07:42:17;;;;;;;7.70;2.50;;;;;;;6.91;100.00;100408.00;5028585;28;20207;-77
2023/01/14 07:44:43;;;;;;;6.63;2.30;;;;;;;6.98;100.00;100405.47;5029700;28;20195;-75
2023/01/14 07:47:15;;;;;;;3.97;1.90;;;;;;;7.06;100.00;100405.53;5003121;28;20200;-75
2023/01/14 07:49:41;;;;;;;4.60;1.90;;;;;;;7.17;100.00;100397.91;5004999;28;20188;-76
2023/01/14 07:52:07;;;;;;;4.03;1.90;;;;;;;7.26;100.00;100392.78;5008787;28;21028;-75
2023/01/14 07:54:33;;;;;;;2.97;1.37;;;;;;;7.32;100.00;100402.25;5002681;28;20691;-76
2023/01/14 07:56:58;;;;;;;6.67;2.07;;;;;;;7.41;100.00;100393.75;4998562;28;20355;-75
2023/01/14 07:59:23;;;;;;;3.47;1.80;;;;;;;7.46;100.00;100390.31;5001708;28;20274;-75
2023/01/14 08:01:48;;;;;;;4.07;1.93;;;;;;;7.53;100.00;100390.38;5005021;28;20188;-75
2023/01/14 08:04:14;;;;;;;4.07;1.83;;;;;;;7.59;100.00;100390.38;5006679;28;20212;-76
2023/01/14 08:06:39;;;;;;;2.97;1.70;;;;;;;7.63;100.00;100387.88;5007171;28;20203;-76
2023/01/14 08:09:04;;;;;;;4.27;1.70;;;;;;;7.69;100.00;100386.16;4995644;28;20230;-76
2023/01/14 08:11:31;;;;;;;4.97;2.00;;;;;;;7.71;100.00;100375.03;4999668;28;20192;-76
2023/01/14 08:13:56;;;;;;;3.80;1.43;;;;;;;7.76;100.00;100375.03;5005617;28;20193;-75
2023/01/14 08:16:21;;;;;;;3.77;1.43;;;;;;;7.81;100.00;100369.88;5006185;28;20210;-75
2023/01/14 08:18:48;;;;;;;5.93;1.63;;;;;;;7.88;100.00;100376.78;5006430;28;20206;-76
2023/01/14 08:21:13;;;;;;;3.67;1.53;;;;;;;7.96;100.00;100375.09;5007632;28;20181;-75
2023/01/14 08:23:39;;;;;;;4.37;1.57;;;;;;;8.05;100.00;100375.09;5003893;28;20797;-75
2023/01/14 08:26:06;;;;;;;3.33;1.57;;;;;;;8.21;100.00;100365.72;5002634;28;20224;-76
2023/01/14 08:28:32;;;;;;;3.73;1.50;;;;;;;8.33;100.00;100362.28;4991514;28;20220;-75
2023/01/14 08:31:04;;;;;;;4.90;2.10;;;;;;;8.45;100.00;100370.91;4998448;28;20669;-76
2023/01/14 08:33:29;;;;;;;3.27;1.73;;;;;;;8.51;100.00;100353.75;4996466;28;20609;-75
2023/01/14 08:35:54;;;;;;;2.60;1.40;;;;;;;8.59;100.00;100342.56;5002604;28;20176;-75
2023/01/14 08:38:20;;;;;;;3.00;1.50;;;;;;;8.62;100.00;100345.16;4994473;28;20327;-75
2023/01/14 08:40:48;;;;;;;3.47;1.30;;;;;;;8.68;100.00;100345.16;5001380;28;20640;-75
2023/01/14 08:43:13;;;;;;;2.83;1.40;;;;;;;8.71;100.00;100345.13;4995690;28;20696;-75
2023/01/14 08:45:39;;;;;;;3.23;1.37;;;;;;;8.70;100.00;100340.81;4998539;28;20193;-76
2023/01/14 08:48:04;;;;;;;3.67;1.73;;;;;;;8.70;100.00;100338.25;4994622;28;20710;-76
2023/01/14 08:50:30;;;;;;;3.37;1.53;;;;;;;8.73;100.00;100340.00;4997260;28;20189;-75
2023/01/14 08:52:55;;;;;;;3.10;1.70;;;;;;;8.73;100.00;100330.50;4992426;28;20324;-75
2023/01/14 08:55:21;;;;;;;2.93;1.30;;;;;;;8.75;100.00;100333.97;4994935;28;20193;-75
2023/01/14 08:57:46;;;;;;;3.23;1.67;;;;;;;8.74;100.00;100329.66;4997154;28;20188;-75
2023/01/14 09:00:12;;;;;;;2.40;1.50;;;;;;;8.75;100.00;100331.38;5000897;28;20650;-76
2023/01/14 09:02:37;;;;;;;3.27;2.00;;;;;;;8.74;100.00;100331.38;4998767;28;20188;-76
2023/01/14 09:05:03;;;;;;;2.67;1.80;;;;;;;8.72;100.00;100322.78;4994682;28;20656;-76
2023/01/14 09:18:41;;;;;;;3.17;1.50;;;;;;;8.84;100.00;100312.44;4990738;28;20203;-75
2023/01/14 09:21:07;;;;;;;2.30;1.13;;;;;;;8.88;100.00;100311.59;4995638;28;20191;-75
2023/01/14 09:23:32;;;;;;;2.60;1.40;;;;;;;8.91;100.00;100311.59;4991418;28;20656;-74
2023/01/14 09:25:57;;;;;;;4.40;1.80;;;;;;;8.93;100.00;100309.84;4991969;28;20203;-75
2023/01/14 09:28:23;;;;;;;4.53;1.67;;;;;;;8.95;100.00;100304.69;4989058;28;20197;-75
2023/01/14 09:30:48;;;;;;;4.63;1.77;;;;;;;8.92;100.00;100304.69;4989890;28;20275;-74
2023/01/14 09:33:13;;;;;;;4.87;1.80;;;;;;;8.89;100.00;100307.28;4990284;28;20213;-75
2023/01/14 09:35:39;;;;;;;3.83;1.50;;;;;;;8.85;100.00;100304.69;5011983;28;20283;-74
2023/01/14 09:38:04;;;;;;;4.60;3.20;;;;;;;8.88;100.00;100290.06;4989526;28;20184;-75
2023/01/14 09:40:30;;;;;;;6.47;5.33;;;;;;;8.90;100.00;100273.75;4993446;28;20193;-75
2023/01/14 09:42:57;;;;;;;6.93;6.20;;;;;;;8.99;100.00;100270.28;4992280;28;20220;-75
2023/01/14 09:45:32;;;;;;;4.90;3.20;;;;;;;9.10;100.00;100254.72;4999287;28;20196;-75
2023/01/14 09:48:03;;;;;;;4.33;2.33;;;;;;;9.17;100.00;100266.75;4992692;28;20828;-75
2023/01/14 09:50:50;;;;;;;3.37;1.83;;;;;;;9.26;100.00;100258.13;5033849;28;20195;-75
2023/01/14 09:53:53;;;;;;;3.77;1.67;;;;;;;9.33;100.00;100269.28;5019223;28;20212;-75
2023/01/14 09:56:29;;;;;;;3.33;1.40;;;;;;;9.40;100.00;100258.94;4998204;28;20185;-75
2023/01/14 09:58:57;;;;;;;4.47;1.70;;;;;;;9.47;100.00;100254.59;5004424;28;20184;-75
2023/01/14 10:01:32;;;;;;;3.50;1.47;;;;;;;9.53;100.00;100241.63;4992594;28;20185;-75
2023/01/14 10:04:09;;;;;;;2.47;1.40;;;;;;;9.59;100.00;100238.16;4997486;28;20199;-75
2023/01/14 10:06:35;;;;;;;4.43;1.77;;;;;;;9.64;100.00;100238.97;4994480;28;20903;-76
2023/01/14 10:09:10;;;;;;;2.13;1.50;;;;;;;9.71;100.00;100232.94;4993276;28;20237;-75
2023/01/14 10:11:40;;;;;;;2.73;1.67;;;;;;;9.76;100.00;100227.72;4993444;28;20718;-75
2023/01/14 10:14:34;;;;;;;3.63;1.70;;;;;;;9.82;100.00;100229.41;4995476;28;20208;-75
2023/01/14 10:17:06;;;;;;;2.80;1.47;;;;;;;9.82;100.00;100219.06;4992467;28;20193;-76
2023/01/14 10:19:42;;;;;;;2.13;1.40;;;;;;;9.84;100.00;100214.75;4998119;28;20184;-74
2023/01/14 10:22:36;;;;;;;2.27;1.20;;;;;;;9.88;100.00;100206.94;4991688;28;20572;-74
2023/01/14 10:25:04;;;;;;;2.30;1.27;;;;;;;9.87;100.00;100194.06;5000975;28;20185;-75
2023/01/14 10:27:33;;;;;;;2.57;1.30;;;;;;;9.87;100.00;100194.06;4988989;28;20185;-77
2023/01/14 10:30:15;;;;;;;3.03;1.50;;;;;;;9.87;100.00;100188.88;4993219;28;20201;-75
2023/01/14 10:32:41;;;;;;;2.70;1.37;;;;;;;9.86;100.00;100182.00;4999845;28;20238;-76
2023/01/14 10:35:13;;;;;;;3.10;1.40;;;;;;;9.87;100.00;100175.97;5000351;28;20236;-76
2023/01/14 10:37:38;;;;;;;1.67;1.17;;;;;;;9.83;100.00;100169.09;4997568;28;20523;-75
2023/01/14 10:40:04;;;;;;;1.73;1.33;;;;;;;9.84;100.00;100155.31;4998967;28;20201;-77
2023/01/14 10:42:30;;;;;;;2.20;1.33;;;;;;;9.85;100.00;100149.25;4995615;28;20189;-74
2023/01/14 10:44:56;;;;;;;3.63;1.47;;;;;;;9.81;100.00;100151.03;4991618;28;20284;-75
2023/01/14 10:47:24;;;;;;;2.83;1.30;;;;;;;9.82;100.00;100139.81;5003652;28;20184;-75
2023/01/14 10:50:02;;;;;;;1.70;1.00;;;;;;;9.86;100.00;100148.41;4997658;28;20775;-75
2023/01/14 10:52:32;;;;;;;3.07;1.53;;;;;;;9.89;100.00;100132.88;4993551;28;20225;-75
2023/01/14 10:55:13;;;;;;;3.57;1.50;;;;;;;9.91;100.00;100121.63;5007445;28;20177;-73
2023/01/14 10:57:59;;;;;;;3.33;1.90;;;;;;;9.92;100.00;100109.53;5003951;28;20188;-75
2023/01/14 11:00:46;;;;;;;2.83;1.57;;;;;;;9.93;100.00;100110.41;5010309;28;20173;-75
2023/01/14 11:03:24;;;;;;;3.13;1.73;;;;;;;9.93;100.00;100113.84;4999769;28;20219;-75
2023/01/14 11:06:04;;;;;;;3.37;2.00;;;;;;;9.93;100.00;100111.25;4995017;28;20308;-77
2023/01/14 11:08:36;;;;;;;2.80;2.40;;;;;;;9.92;100.00;100106.97;4993918;28;20633;-76
2023/01/14 11:11:14;;;;;;;2.80;1.93;;;;;;;9.91;100.00;100092.31;4998535;28;20192;-74
2023/01/14 11:13:42;;;;;;;3.07;2.53;;;;;;;9.93;100.00;100090.59;4993769;28;20206;-76
2023/01/14 11:16:25;;;;;;;2.83;2.23;;;;;;;9.93;100.00;100077.66;4994258;28;20188;-76
2023/01/14 11:18:55;;;;;;;2.60;2.17;;;;;;;9.93;100.00;100063.88;5001095;28;20211;-75
2023/01/14 11:21:23;;;;;;;3.43;2.13;;;;;;;9.95;100.00;100060.41;5001499;28;20314;-76
2023/01/14 11:24:29;;;;;;;3.07;2.30;;;;;;;9.95;100.00;100055.25;4997735;28;20193;-76
2023/01/14 11:27:05;;;;;;;4.10;2.70;;;;;;;9.97;100.00;100047.50;4996676;28;20192;-77
2023/01/14 11:29:35;;;;;;;4.00;2.20;;;;;;;10.00;100.00;100050.88;5001754;28;20211;-74
2023/01/14 11:32:15;;;;;;;3.43;2.37;;;;;;;10.01;100.00;100034.50;4993574;28;20242;-75
2023/01/14 11:34:48;;;;;;;2.93;1.90;;;;;;;10.00;100.00;100024.16;4997201;28;20284;-76
2023/01/14 11:37:20;;;;;;;3.10;2.00;;;;;;;9.98;100.00;100023.34;4992278;28;20244;-76
2023/01/14 11:39:57;;;;;;;2.27;1.97;;;;;;;9.94;100.00;100004.41;4997855;28;20183;-75
2023/01/14 11:42:26;;;;;;;2.10;1.50;;;;;;;9.91;100.00;99999.25;4998274;28;20192;-76
2023/01/14 11:44:58;;;;;;;2.13;1.40;;;;;;;9.86;100.00;99991.56;4997683;28;20213;-76
2023/01/14 11:47:24;;;;;;;1.87;1.17;;;;;;;9.85;100.00;99983.84;4992373;28;20666;-75
2023/01/14 11:50:10;;;;;;;2.50;1.20;;;;;;;9.84;100.00;99972.63;4999049;28;20185;-77
2023/01/14 11:52:35;;;;;;;1.93;1.20;;;;;;;9.83;100.00;99976.09;4996901;28;20181;-75
2023/01/14 11:55:02;;;;;;;1.47;1.20;;;;;;;9.82;100.00;99966.66;5000019;28;20494;-76
2023/01/14 11:57:28;;;;;;;2.30;1.13;;;;;;;9.83;100.00;99958.00;4997187;28;20658;-75
2023/01/14 11:59:53;;;;;;;1.77;1.20;;;;;;;9.81;100.00;99957.19;4995446;28;20228;-76
2023/01/14 12:02:25;;;;;;;1.77;1.00;;;;;;;9.83;100.00;99945.06;5018486;28;20188;-77
2023/01/14 12:05:10;;;;;;;1.70;1.10;;;;;;;9.83;100.00;99949.41;5029519;28;20217;-76